createdAt,value
2022-11-21T00:01:28.780Z,100120.38
2022-11-21T00:03:55.760Z,100116.25
2022-11-21T00:06:24.803Z,100121.03
2022-11-21T00:08:54.529Z,100123.31
2022-11-21T00:11:23.531Z,100128.16
2022-11-21T00:13:50.408Z,100127.94
2022-11-21T00:16:19.813Z,100122.13
2022-11-21T00:18:46.694Z,100114.59
2022-11-21T00:21:17.520Z,100110.09
2022-11-21T00:23:46.155Z,100106.84
2022-11-21T00:26:15.328Z,100098.84
2022-11-21T00:28:45.545Z,100105.88
2022-11-21T00:31:26.029Z,100097.25
2022-11-21T00:33:52.947Z,100094.94
2022-11-21T00:36:19.883Z,100089.59
2022-11-21T00:38:46.779Z,100088.63
2022-11-21T00:41:19.227Z,100086.19
2022-11-21T00:43:49.106Z,100091.97
2022-11-21T00:46:18.429Z,100095.38
2022-11-21T00:48:48.425Z,100086.59
2022-11-21T00:51:15.412Z,100086.25
2022-11-21T00:53:44.808Z,100088.25
2022-11-21T00:56:14.648Z,100085.09
2022-11-21T00:58:43.682Z,100088.72
2022-11-21T01:01:14.564Z,100089.63
2022-11-21T01:03:42.803Z,100090.63
2022-11-21T01:06:15.186Z,100087.44
2022-11-21T01:08:47.109Z,100091.31
2022-11-21T01:11:17.677Z,100093.66
2022-11-21T01:13:51.171Z,100091.63
2022-11-21T01:16:21.834Z,100084.53
2022-11-21T01:18:50.931Z,100087.28
2022-11-21T01:21:32.570Z,100080.97
2022-11-21T01:24:01.313Z,100070.78
2022-11-21T01:26:30.223Z,100084.63
2022-11-21T01:28:58.527Z,100081.28
2022-11-21T01:31:30.476Z,100079.31
2022-11-21T01:33:59.254Z,100076.19
2022-11-21T01:36:32.917Z,100073.31
2022-11-21T01:39:05.773Z,100070.13
2022-11-21T01:41:35.269Z,100063.69
2022-11-21T01:44:23.407Z,100071.06
2022-11-21T01:46:51.904Z,100064.06
2022-11-21T01:49:29.542Z,100064.91
2022-11-21T01:52:08.434Z,100067.25
2022-11-21T01:55:03.510Z,100069.66
2022-11-21T01:57:37.420Z,100060.16
2022-11-21T02:00:12.856Z,100061.34
2022-11-21T02:02:47.200Z,100067.66
2022-11-21T02:05:21.263Z,100063.50
2022-11-21T02:07:52.556Z,100065.44
2022-11-21T02:10:19.484Z,100069.03
2022-11-21T02:12:58.367Z,100060.50
2022-11-21T02:15:30.297Z,100067.06
2022-11-21T02:17:57.423Z,100063.03
2022-11-21T02:20:31.114Z,100062.25
2022-11-21T02:23:23.511Z,100064.84
2022-11-21T02:25:54.189Z,100070.34
2022-11-21T02:28:23.631Z,100071.25
2022-11-21T02:30:53.028Z,100069.22
2022-11-21T02:33:24.661Z,100076.31
2022-11-21T02:36:03.820Z,100067.63
2022-11-21T02:38:39.834Z,100066.47
2022-11-21T02:41:26.575Z,100065.72
2022-11-21T02:43:59.984Z,100075.75
2022-11-21T02:46:35.091Z,100066.47
2022-11-21T02:49:07.958Z,100083.50
2022-11-21T02:51:34.824Z,100076.13
2022-11-21T02:54:01.811Z,100073.00
2022-11-21T02:56:29.179Z,100077.31
2022-11-21T02:58:56.330Z,100072.09
2022-11-21T03:01:25.332Z,100071.78
2022-11-21T03:03:52.245Z,100075.13
2022-11-21T03:06:19.114Z,100076.97
2022-11-21T03:08:46.527Z,100068.25
2022-11-21T03:11:15.841Z,100066.56
2022-11-21T03:13:44.845Z,100076.25
2022-11-21T03:16:11.671Z,100078.09
2022-11-21T03:18:41.515Z,100075.41
2022-11-21T03:21:11.425Z,100080.31
2022-11-21T03:23:38.272Z,100079.00
2022-11-21T03:26:05.143Z,100075.41
2022-11-21T03:28:34.108Z,100080.88
2022-11-21T03:31:01.018Z,100079.84
2022-11-21T03:33:27.885Z,100081.94
2022-11-21T03:35:57.220Z,100078.41
2022-11-21T03:38:24.117Z,100080.38
2022-11-21T03:40:53.196Z,100078.16
2022-11-21T03:43:20.099Z,100072.22
2022-11-21T03:45:49.446Z,100070.03
2022-11-21T03:48:19.395Z,100067.66
2022-11-21T03:50:48.324Z,100073.44
2022-11-21T03:53:17.665Z,100077.16
2022-11-21T03:55:44.538Z,100077.41
2022-11-21T03:58:11.473Z,100075.41
2022-11-21T04:00:40.523Z,100067.50
2022-11-21T04:03:07.353Z,100072.16
2022-11-21T04:05:36.461Z,100065.38
2022-11-21T04:08:03.312Z,100071.22
2022-11-21T04:10:30.175Z,100065.97
2022-11-21T04:13:01.627Z,100069.34
2022-11-21T04:15:30.607Z,100068.16
2022-11-21T04:18:02.097Z,100064.91
2022-11-21T04:20:31.908Z,100074.00
2022-11-21T04:23:45.667Z,100081.19
2022-11-21T04:26:12.515Z,100067.16
2022-11-21T04:28:39.647Z,100077.31
2022-11-21T04:31:10.780Z,100073.59
2022-11-21T04:33:41.840Z,100080.78
2022-11-21T04:36:11.923Z,100075.06
2022-11-21T04:38:38.780Z,100077.41
2022-11-21T04:41:05.660Z,100088.00
2022-11-21T04:43:32.578Z,100079.09
2022-11-21T04:45:59.457Z,100080.72
2022-11-21T04:48:26.298Z,100080.72
2022-11-21T04:50:53.182Z,100090.13
2022-11-21T04:53:20.056Z,100087.31
2022-11-21T04:55:49.969Z,100092.25
2022-11-21T04:58:16.845Z,100078.72
2022-11-21T05:00:43.858Z,100086.22
2022-11-21T05:03:10.991Z,100077.59
2022-11-21T05:05:38.020Z,100076.66
2022-11-21T05:08:05.201Z,100083.06
2022-11-21T05:10:54.307Z,100070.41
2022-11-21T05:13:23.713Z,100076.59
2022-11-21T05:15:59.791Z,100076.91
2022-11-21T05:18:26.646Z,100073.16
2022-11-21T05:20:53.582Z,100072.88
2022-11-21T05:23:20.426Z,100077.00
2022-11-21T05:25:47.311Z,100089.63
2022-11-21T05:28:16.729Z,100087.66
2022-11-21T05:30:45.899Z,100084.16
2022-11-21T05:33:12.765Z,100086.47
2022-11-21T05:35:43.148Z,100090.00
2022-11-21T05:38:10.719Z,100089.13
2022-11-21T05:40:37.762Z,100089.31
2022-11-21T05:43:22.987Z,100100.06
2022-11-21T05:45:53.573Z,100094.22
2022-11-21T05:48:24.034Z,100100.91
2022-11-21T05:50:50.974Z,100106.09
2022-11-21T05:53:20.504Z,100099.56
2022-11-21T05:55:49.950Z,100095.63
2022-11-21T05:58:19.840Z,100100.25
2022-11-21T06:00:46.770Z,100097.38
2022-11-21T06:03:30.515Z,100104.41
2022-11-21T06:06:10.739Z,100107.78
2022-11-21T06:08:44.001Z,100100.75
2022-11-21T06:11:14.014Z,100094.91
2022-11-21T06:13:42.103Z,100097.59
2022-11-21T06:16:15.650Z,100103.19
2022-11-21T06:18:47.636Z,100100.03
2022-11-21T06:21:25.745Z,100098.81
2022-11-21T06:24:00.160Z,100095.41
2022-11-21T06:26:28.082Z,100093.97
2022-11-21T06:28:58.251Z,100096.63
2022-11-21T06:31:27.485Z,100100.28
2022-11-21T06:33:59.406Z,100091.63
2022-11-21T06:36:27.146Z,100101.69
2022-11-21T06:38:56.964Z,100102.44
2022-11-21T06:41:27.069Z,100100.41
2022-11-21T06:43:53.925Z,100094.34
2022-11-21T06:46:23.341Z,100097.16
2022-11-21T06:48:50.168Z,100100.53
2022-11-21T06:51:25.105Z,100092.28
2022-11-21T06:54:01.445Z,100093.31
2022-11-21T06:56:30.789Z,100098.47
2022-11-21T06:58:58.522Z,100096.19
2022-11-21T07:01:30.589Z,100105.47
2022-11-21T07:03:57.541Z,100098.81
2022-11-21T07:06:24.583Z,100108.28
2022-11-21T07:09:31.072Z,100105.50
2022-11-21T07:11:46.542Z,100092.88
2022-11-21T07:14:18.125Z,100098.25
2022-11-21T07:16:45.007Z,100100.63
2022-11-21T07:19:12.044Z,100104.59
2022-11-21T07:21:39.048Z,100103.00
2022-11-21T07:24:06.383Z,100100.97
2022-11-21T07:26:35.349Z,100108.09
2022-11-21T07:29:02.371Z,100108.03
2022-11-21T07:31:33.881Z,100103.69
2022-11-21T07:34:02.972Z,100098.28
2022-11-21T07:36:32.431Z,100097.50
2022-11-21T07:39:02.911Z,100104.44
2022-11-21T07:41:29.849Z,100100.75
2022-11-21T07:43:56.690Z,100094.94
2022-11-21T07:46:23.791Z,100089.09
2022-11-21T07:48:50.995Z,100092.97
2022-11-21T07:51:22.832Z,100094.88
2022-11-21T07:53:51.928Z,100102.75
2022-11-21T07:56:21.299Z,100104.22
2022-11-21T07:58:52.927Z,100107.47
2022-11-21T08:01:19.918Z,100101.19
2022-11-21T08:03:46.982Z,100101.97
2022-11-21T08:06:13.995Z,100110.34
2022-11-21T08:08:40.896Z,100110.47
2022-11-21T08:11:08.251Z,100108.28
2022-11-21T08:13:35.587Z,100095.16
2022-11-21T08:16:04.271Z,100105.81
2022-11-21T08:18:31.725Z,100099.78
2022-11-21T08:21:04.129Z,100101.56
2022-11-21T08:23:32.395Z,100099.50
2022-11-21T08:25:59.565Z,100090.69
2022-11-21T08:28:26.434Z,100092.03
2022-11-21T08:30:53.816Z,100097.16
2022-11-21T08:33:23.145Z,100104.41
2022-11-21T08:35:50.028Z,100098.09
2022-11-21T08:38:16.955Z,100098.19
2022-11-21T08:40:43.910Z,100093.84
2022-11-21T08:43:10.784Z,100096.38
2022-11-21T08:45:41.914Z,100100.91
2022-11-21T08:48:12.249Z,100088.16
2022-11-21T08:50:39.464Z,100095.19
2022-11-21T08:53:06.300Z,100096.03
2022-11-21T08:55:37.721Z,100096.03
2022-11-21T08:58:07.014Z,100095.31
2022-11-21T09:00:34.000Z,100096.84
2022-11-21T09:03:05.586Z,100093.09
2022-11-21T09:05:33.916Z,100093.34
2022-11-21T09:08:00.738Z,100086.88
2022-11-21T09:10:35.018Z,100093.84
2022-11-21T09:13:04.289Z,100095.75
2022-11-21T09:15:50.718Z,100094.22
2022-11-21T09:18:17.553Z,100094.63
2022-11-21T09:20:45.070Z,100088.69
2022-11-21T09:23:16.472Z,100094.63
2022-11-21T09:25:47.163Z,100095.63
2022-11-21T09:28:15.007Z,100101.16
2022-11-21T09:30:44.484Z,100101.03
2022-11-21T09:33:14.382Z,100105.69
2022-11-21T09:35:48.153Z,100108.09
2022-11-21T09:38:18.550Z,100100.25
2022-11-21T09:40:50.214Z,100104.75
2022-11-21T09:43:38.738Z,100097.19
2022-11-21T09:46:16.635Z,100100.78
2022-11-21T09:49:02.904Z,100099.72
2022-11-21T09:51:32.658Z,100109.88
2022-11-21T09:54:13.158Z,100100.59
2022-11-21T09:56:44.679Z,100099.66
2022-11-21T09:59:32.634Z,100095.97
2022-11-21T10:02:00.993Z,100096.09
2022-11-21T10:04:53.041Z,100090.78
2022-11-21T10:07:29.991Z,100090.66
2022-11-21T10:10:07.312Z,100086.69
2022-11-21T10:13:23.516Z,100089.78
2022-11-21T10:15:57.970Z,100089.47
2022-11-21T10:18:56.859Z,100089.88
2022-11-21T10:21:39.541Z,100092.44
2022-11-21T10:24:13.502Z,100088.09
2022-11-21T10:27:26.061Z,100090.97
2022-11-21T10:30:22.063Z,100088.72
2022-11-21T10:33:02.051Z,100087.69
2022-11-21T10:36:05.316Z,100083.78
2022-11-21T10:38:39.143Z,100077.72
2022-11-21T10:41:47.038Z,100076.34
2022-11-21T10:44:47.487Z,100067.31
2022-11-21T10:47:35.496Z,100075.09
2022-11-21T10:50:20.752Z,100067.75
2022-11-21T10:53:24.779Z,100072.78
2022-11-21T10:56:12.709Z,100057.72
2022-11-21T10:59:00.524Z,100054.06
2022-11-21T11:01:34.176Z,100047.94
2022-11-21T11:04:43.995Z,100049.88
2022-11-21T11:07:23.184Z,100056.41
2022-11-21T11:09:53.612Z,100055.41
2022-11-21T11:12:47.456Z,100043.06
2022-11-21T11:15:29.521Z,100045.22
2022-11-21T11:18:09.423Z,100042.81
2022-11-21T11:20:44.891Z,100047.19
2022-11-21T11:23:21.049Z,100041.59
2022-11-21T11:25:54.986Z,100048.31
2022-11-21T11:28:25.490Z,100044.59
2022-11-21T11:30:59.959Z,100045.28
2022-11-21T11:33:39.353Z,100052.28
2022-11-21T11:36:33.393Z,100051.31
2022-11-21T11:39:11.417Z,100046.53
2022-11-21T11:42:37.361Z,100051.34
2022-11-21T11:45:31.540Z,100044.47
2022-11-21T11:48:08.812Z,100045.69
2022-11-21T11:50:41.905Z,100043.31
2022-11-21T11:53:17.966Z,100038.03
2022-11-21T11:55:58.228Z,100044.41
2022-11-21T11:58:50.767Z,100034.94
2022-11-21T12:01:44.533Z,100027.78
2022-11-21T12:04:23.860Z,100027.97
2022-11-21T12:10:16.617Z,100015.19
2022-11-21T12:12:52.949Z,100009.00
2022-11-21T12:15:49.827Z,99988.91
2022-11-21T12:18:22.254Z,99986.91
2022-11-21T12:21:15.036Z,99989.34
2022-11-21T12:23:55.845Z,99986.25
2022-11-21T12:26:47.104Z,99986.00
2022-11-21T12:29:38.069Z,99974.88
2022-11-21T12:32:17.222Z,99967.44
2022-11-21T12:35:17.604Z,99960.38
2022-11-21T12:37:59.953Z,99950.53
2022-11-21T12:41:26.550Z,99955.22
2022-11-21T12:44:10.849Z,99945.00
2022-11-21T12:47:18.260Z,99950.81
2022-11-21T12:50:35.479Z,99947.19
2022-11-21T12:53:38.960Z,99943.75
2022-11-21T12:56:29.027Z,99939.53
2022-11-21T12:59:00.670Z,99940.00
2022-11-21T13:01:58.850Z,99938.69
2022-11-21T13:04:35.427Z,99931.16
2022-11-21T13:07:06.157Z,99926.47
2022-11-21T13:09:45.173Z,99929.63
2022-11-21T13:12:33.018Z,99928.75
2022-11-21T13:15:28.434Z,99932.28
2022-11-21T13:18:06.017Z,99925.75
2022-11-21T13:20:40.421Z,99929.22
2022-11-21T13:23:36.727Z,99925.00
2022-11-21T13:26:30.093Z,99932.53
2022-11-21T13:29:17.051Z,99920.13
2022-11-21T13:31:46.267Z,99922.88
2022-11-21T13:34:31.506Z,99917.50
2022-11-21T13:37:04.206Z,99911.97
2022-11-21T13:39:35.919Z,99919.03
2022-11-21T13:42:27.458Z,99933.03
2022-11-21T13:44:54.870Z,99915.56
2022-11-21T13:47:56.341Z,99917.69
2022-11-21T13:51:21.767Z,99922.94
2022-11-21T13:54:25.607Z,99920.13
2022-11-21T13:57:11.125Z,99926.97
2022-11-21T14:00:20.372Z,99927.22
2022-11-21T14:03:24.211Z,99921.50
2022-11-21T14:06:36.109Z,99925.66
2022-11-21T14:09:30.494Z,99920.44
2022-11-21T14:12:03.076Z,99914.91
2022-11-21T14:14:43.967Z,99908.91
2022-11-21T14:17:50.616Z,99915.69
2022-11-21T14:20:50.132Z,99920.88
2022-11-21T14:23:26.160Z,99923.22
2022-11-21T14:26:05.010Z,99926.91
2022-11-21T14:28:38.393Z,99929.16
2022-11-21T14:31:14.013Z,99917.28
2022-11-21T14:33:48.668Z,99912.44
2022-11-21T14:36:25.952Z,99908.16
2022-11-21T14:39:35.434Z,99895.00
2022-11-21T14:42:01.250Z,99898.34
2022-11-21T14:44:28.440Z,99903.06
2022-11-21T14:47:18.463Z,99899.56
2022-11-21T14:49:55.149Z,99891.41
2022-11-21T14:52:27.665Z,99898.44
2022-11-21T14:55:29.277Z,99895.22
2022-11-21T14:57:54.893Z,99902.44
2022-11-21T15:03:23.273Z,99891.22
2022-11-21T15:06:04.719Z,99897.94
2022-11-21T15:11:27.610Z,99900.09
2022-11-21T15:14:17.834Z,99904.19
2022-11-21T15:16:53.583Z,99897.16
2022-11-21T15:19:24.184Z,99895.72
2022-11-21T15:21:56.788Z,99882.19
2022-11-21T15:24:32.455Z,99877.34
2022-11-21T15:27:01.644Z,99874.09
2022-11-21T15:29:32.397Z,99875.81
2022-11-21T15:32:16.827Z,99872.47
2022-11-21T15:35:36.863Z,99876.13
2022-11-21T15:38:31.317Z,99868.53
2022-11-21T15:41:10.585Z,99864.16
2022-11-21T15:43:46.383Z,99866.56
2022-11-21T15:46:30.700Z,99869.34
2022-11-21T15:49:31.028Z,99866.50
2022-11-21T15:52:06.589Z,99863.34
2022-11-21T15:54:34.514Z,99864.31
2022-11-21T15:57:04.435Z,99870.63
2022-11-21T15:59:31.849Z,99871.06
2022-11-21T16:02:01.043Z,99874.53
2022-11-21T16:04:28.189Z,99880.91
2022-11-21T16:07:00.354Z,99873.56
2022-11-21T16:09:29.739Z,99861.00
2022-11-21T16:11:56.943Z,99859.31
2022-11-21T16:14:25.958Z,99851.66
2022-11-21T16:16:52.852Z,99851.59
2022-11-21T16:19:21.760Z,99855.03
2022-11-21T16:21:51.687Z,99836.75
2022-11-21T16:24:18.639Z,99834.03
2022-11-21T16:26:53.350Z,99833.03
2022-11-21T16:29:20.425Z,99829.22
2022-11-21T16:31:49.907Z,99833.72
2022-11-21T16:34:24.964Z,99842.22
2022-11-21T16:36:55.191Z,99839.47
2022-11-21T16:39:25.067Z,99830.81
2022-11-21T16:41:52.025Z,99824.13
2022-11-21T16:44:18.970Z,99822.09
2022-11-21T16:46:51.603Z,99822.63
2022-11-21T16:49:25.580Z,99816.16
2022-11-21T16:51:52.458Z,99809.34
2022-11-21T16:54:22.094Z,99818.13
2022-11-21T16:56:52.406Z,99815.75
2022-11-21T16:59:21.575Z,99819.91
2022-11-21T17:01:51.427Z,99820.50
2022-11-21T17:04:20.943Z,99827.19
2022-11-21T17:06:50.067Z,99839.59
2022-11-21T17:09:17.351Z,99838.56
2022-11-21T17:11:46.358Z,99837.31
2022-11-21T17:14:15.532Z,99843.31
2022-11-21T17:16:42.403Z,99844.00
2022-11-21T17:19:17.340Z,99835.66
2022-11-21T17:21:44.216Z,99836.63
2022-11-21T17:24:13.574Z,99836.50
2022-11-21T17:26:40.482Z,99833.78
2022-11-21T17:29:07.640Z,99837.31
2022-11-21T17:31:34.697Z,99835.16
2022-11-21T17:34:07.222Z,99841.56
2022-11-21T17:36:34.644Z,99836.34
2022-11-21T17:39:01.986Z,99834.28
2022-11-21T17:41:28.891Z,99836.16
2022-11-21T17:44:03.831Z,99847.75
2022-11-21T17:46:30.868Z,99837.78
2022-11-21T17:48:59.296Z,99837.56
2022-11-21T17:51:33.459Z,99824.72
2022-11-21T17:54:03.826Z,99829.13
2022-11-21T17:56:39.790Z,99827.19
2022-11-21T17:59:15.004Z,99828.72
2022-11-21T18:01:42.657Z,99827.63
2022-11-21T18:04:15.231Z,99815.97
2022-11-21T18:06:42.464Z,99813.31
2022-11-21T18:09:13.135Z,99805.94
2022-11-21T18:11:40.871Z,99801.97
2022-11-21T18:14:10.714Z,99802.19
2022-11-21T18:16:39.506Z,99793.25
2022-11-21T18:19:07.509Z,99785.31
2022-11-21T18:21:36.226Z,99779.63
2022-11-21T18:24:03.379Z,99775.50
2022-11-21T18:26:33.855Z,99778.69
2022-11-21T18:29:35.568Z,99775.66
2022-11-21T18:31:55.568Z,99779.16
2022-11-21T18:34:25.524Z,99777.09
2022-11-21T18:36:53.672Z,99758.44
2022-11-21T18:39:23.092Z,99752.97
2022-11-21T18:41:50.917Z,99749.31
2022-11-21T18:44:22.608Z,99748.78
2022-11-21T18:46:49.935Z,99742.56
2022-11-21T18:49:19.454Z,99729.94
2022-11-21T18:51:46.528Z,99722.63
2022-11-21T18:54:13.494Z,99714.31
2022-11-21T18:56:40.648Z,99702.50
2022-11-21T18:59:10.356Z,99705.19
2022-11-21T19:01:39.840Z,99700.38
2022-11-21T19:04:07.219Z,99698.94
2022-11-21T19:06:36.290Z,99683.31
2022-11-21T19:09:04.062Z,99669.03
2022-11-21T19:11:31.027Z,99668.31
2022-11-21T19:14:00.576Z,99656.16
2022-11-21T19:16:33.846Z,99652.03
2022-11-21T19:21:48.658Z,99651.59
2022-11-21T19:24:16.674Z,99648.44
2022-11-21T19:26:43.570Z,99647.88
2022-11-21T19:29:13.122Z,99626.09
2022-11-21T19:31:45.995Z,99626.34
2022-11-21T19:34:17.061Z,99637.56
2022-11-21T19:36:45.368Z,99643.91
2022-11-21T19:39:17.494Z,99651.34
2022-11-21T19:41:44.521Z,99635.06
2022-11-21T19:44:11.604Z,99642.34
2022-11-21T19:46:39.903Z,99647.56
2022-11-21T19:49:14.137Z,99654.59
2022-11-21T19:51:44.783Z,99650.44
2022-11-21T19:54:13.511Z,99655.03
2022-11-21T19:56:40.617Z,99643.72
2022-11-21T19:59:07.717Z,99655.63
2022-11-21T20:01:35.555Z,99650.22
2022-11-21T20:04:05.120Z,99657.19
2022-11-21T20:06:39.023Z,99655.91
2022-11-21T20:09:18.417Z,99661.75
2022-11-21T20:11:51.853Z,99651.69
2022-11-21T20:14:24.272Z,99654.94
2022-11-21T20:16:54.359Z,99651.78
2022-11-21T20:19:24.603Z,99651.31
2022-11-21T20:21:54.848Z,99637.16
2022-11-21T20:24:23.794Z,99651.81
2022-11-21T20:26:50.758Z,99655.63
2022-11-21T20:29:20.252Z,99655.03
2022-11-21T20:31:48.514Z,99664.63
2022-11-21T20:34:18.043Z,99672.66
2022-11-21T20:36:48.146Z,99674.09
2022-11-21T20:39:19.593Z,99671.47
2022-11-21T20:41:48.070Z,99666.88
2022-11-21T20:47:08.718Z,99667.66
2022-11-21T20:49:36.432Z,99672.16
2022-11-21T20:54:52.781Z,99682.03
2022-11-21T20:57:19.646Z,99682.72
2022-11-21T20:59:46.572Z,99681.88
2022-11-21T21:02:15.730Z,99689.38
2022-11-21T21:04:42.976Z,99692.50
2022-11-21T21:07:10.268Z,99702.81
2022-11-21T21:09:39.965Z,99686.94
2022-11-21T21:12:07.069Z,99682.06
2022-11-21T21:14:38.891Z,99675.19
2022-11-21T21:17:06.013Z,99661.25
2022-11-21T21:19:33.115Z,99656.00
2022-11-21T21:22:02.284Z,99646.25
2022-11-21T21:24:29.218Z,99638.16
2022-11-21T21:26:56.129Z,99631.84
2022-11-21T21:29:23.205Z,99635.63
2022-11-21T21:31:51.934Z,99647.25
2022-11-21T21:34:25.654Z,99652.56
2022-11-21T21:36:52.531Z,99650.25
2022-11-21T21:39:19.630Z,99647.56
2022-11-21T21:41:48.614Z,99633.09
2022-11-21T21:44:16.481Z,99633.69
2022-11-21T21:46:45.721Z,99647.47
2022-11-21T21:49:13.219Z,99650.13
2022-11-21T21:51:43.054Z,99650.16
2022-11-21T21:54:21.724Z,99665.03
2022-11-21T21:56:50.261Z,99649.16
2022-11-21T21:59:18.427Z,99641.16
2022-11-21T22:01:46.083Z,99651.44
2022-11-21T22:04:17.797Z,99645.75
2022-11-21T22:06:47.839Z,99648.50
2022-11-21T22:09:14.736Z,99647.63
2022-11-21T22:11:41.668Z,99645.72
2022-11-21T22:14:18.167Z,99651.34
2022-11-21T22:16:45.129Z,99657.44
2022-11-21T22:19:12.132Z,99647.94
2022-11-21T22:21:39.570Z,99656.09
2022-11-21T22:24:29.533Z,99654.78
2022-11-21T22:26:59.141Z,99646.53
2022-11-21T22:29:28.571Z,99627.78
2022-11-21T22:32:00.125Z,99630.22
2022-11-21T22:34:32.089Z,99622.13
2022-11-21T22:36:59.166Z,99631.59
2022-11-21T22:39:26.268Z,99626.00
2022-11-21T22:41:58.435Z,99627.41
2022-11-21T22:44:27.044Z,99632.88
2022-11-21T22:46:56.208Z,99636.28
2022-11-21T22:49:23.059Z,99635.81
2022-11-21T22:51:50.073Z,99625.41
2022-11-21T22:54:17.501Z,99611.06
2022-11-21T22:56:44.389Z,99611.88
2022-11-21T22:59:14.247Z,99594.78
2022-11-21T23:01:41.210Z,99584.63
2022-11-21T23:04:13.370Z,99585.75
2022-11-21T23:06:44.399Z,99587.19
2022-11-21T23:09:11.278Z,99589.53
2022-11-21T23:11:41.237Z,99580.84
2022-11-21T23:14:08.223Z,99570.00
2022-11-21T23:16:35.340Z,99573.16
2022-11-21T23:19:02.327Z,99580.00
2022-11-21T23:21:30.270Z,99581.78
2022-11-21T23:23:57.210Z,99577.00
2022-11-21T23:26:24.297Z,99576.22
2022-11-21T23:28:51.184Z,99568.44
2022-11-21T23:31:20.166Z,99559.19
2022-11-21T23:33:49.122Z,99562.28
2022-11-21T23:36:18.175Z,99563.28
2022-11-21T23:38:48.159Z,99556.22
2022-11-21T23:41:17.125Z,99557.97
2022-11-21T23:43:44.045Z,99554.69
2022-11-21T23:46:13.262Z,99550.03
2022-11-21T23:48:40.247Z,99553.50
2022-11-21T23:51:09.651Z,99560.25
2022-11-21T23:53:38.705Z,99549.53
2022-11-21T23:56:08.311Z,99540.25
2022-11-21T23:58:35.254Z,99541.09
